createdAt,value
2023-03-18T00:00:23.577Z,100615.91
2023-03-18T00:02:52.753Z,100616.91
2023-03-18T00:05:20.973Z,100617.91
2023-03-18T00:07:50.217Z,100614.38
2023-03-18T00:10:18.844Z,100612.69
2023-03-18T00:12:46.719Z,100611.81
2023-03-18T00:15:18.184Z,100611.00
2023-03-18T00:17:46.599Z,100601.25
2023-03-18T00:20:18.334Z,100601.28
2023-03-18T00:22:46.839Z,100602.22
2023-03-18T00:25:15.705Z,100617.56
2023-03-18T00:27:43.387Z,100616.75
2023-03-18T00:30:12.943Z,100621.31
2023-03-18T00:32:41.452Z,100633.06
2023-03-18T00:35:10.751Z,100631.41
2023-03-18T00:37:39.891Z,100621.66
2023-03-18T00:40:10.704Z,100621.69
2023-03-18T00:42:47.320Z,100625.38
2023-03-18T00:45:17.086Z,100621.84
2023-03-18T00:47:45.712Z,100628.09
2023-03-18T00:50:13.668Z,100636.25
2023-03-18T00:52:42.765Z,100626.56
2023-03-18T00:55:11.341Z,100614.09
2023-03-18T00:57:39.093Z,100618.56
2023-03-18T01:00:07.979Z,100610.59
2023-03-18T01:02:35.868Z,100624.88
2023-03-18T01:05:04.420Z,100613.25
2023-03-18T01:07:32.093Z,100611.47
2023-03-18T01:10:01.184Z,100613.25
2023-03-18T01:12:28.871Z,100608.78
2023-03-18T01:14:56.615Z,100621.31
2023-03-18T01:17:24.261Z,100619.63
2023-03-18T01:19:52.137Z,100620.53
2023-03-18T01:22:20.064Z,100622.34
2023-03-18T01:24:48.145Z,100633.09
2023-03-18T01:27:17.225Z,100630.41
2023-03-18T01:29:46.451Z,100629.59
2023-03-18T01:32:14.260Z,100638.53
2023-03-18T01:34:42.263Z,100639.38
2023-03-18T01:37:10.036Z,100637.53
2023-03-18T01:39:37.810Z,100650.03
2023-03-18T01:42:06.404Z,100646.47
2023-03-18T01:44:35.430Z,100655.34
2023-03-18T01:47:03.159Z,100660.66
2023-03-18T01:49:35.603Z,100654.50
2023-03-18T01:52:05.264Z,100649.94
2023-03-18T01:54:37.101Z,100645.31
2023-03-18T01:57:05.617Z,100635.44
2023-03-18T01:59:39.318Z,100624.66
2023-03-18T02:02:09.132Z,100641.53
2023-03-18T02:04:41.122Z,100640.72
2023-03-18T02:07:14.870Z,100636.38
2023-03-18T02:09:42.629Z,100621.31
2023-03-18T02:12:11.940Z,100622.22
2023-03-18T02:14:41.234Z,100617.84
2023-03-18T02:17:13.540Z,100628.63
2023-03-18T02:19:51.769Z,100625.06
2023-03-18T02:22:26.492Z,100624.16
2023-03-18T02:25:05.210Z,100625.13
2023-03-18T02:27:37.328Z,100630.47
2023-03-18T02:30:11.342Z,100620.59
2023-03-18T02:32:40.740Z,100632.25
2023-03-18T02:35:12.078Z,100637.66
2023-03-18T02:37:39.830Z,100634.06
2023-03-18T02:40:16.458Z,100644.81
2023-03-18T02:42:46.055Z,100636.75
2023-03-18T02:45:24.812Z,100637.66
2023-03-18T02:47:54.062Z,100627.88
2023-03-18T02:50:21.766Z,100636.84
2023-03-18T02:52:49.433Z,100638.56
2023-03-18T02:55:17.588Z,100641.31
2023-03-18T02:57:46.773Z,100644.00
2023-03-18T03:00:16.343Z,100637.72
2023-03-18T03:02:45.291Z,100641.31
2023-03-18T03:05:13.184Z,100642.25
2023-03-18T03:07:41.032Z,100641.34
2023-03-18T03:10:10.029Z,100644.94
2023-03-18T03:12:39.744Z,100647.66
2023-03-18T03:15:09.968Z,100649.44
2023-03-18T03:17:37.917Z,100644.06
2023-03-18T03:20:07.468Z,100648.59
2023-03-18T03:22:35.643Z,100653.13
2023-03-18T03:25:03.412Z,100658.59
2023-03-18T03:27:31.526Z,100651.50
2023-03-18T03:29:59.407Z,100653.38
2023-03-18T03:32:29.016Z,100652.59
2023-03-18T03:34:56.650Z,100654.44
2023-03-18T03:37:24.386Z,100659.03
2023-03-18T03:39:52.031Z,100666.13
2023-03-18T03:42:19.740Z,100667.91
2023-03-18T03:44:47.494Z,100675.03
2023-03-18T03:47:15.367Z,100678.56
2023-03-18T03:49:44.406Z,100678.50
2023-03-18T03:52:12.303Z,100673.97
2023-03-18T03:54:41.492Z,100671.22
2023-03-18T03:57:09.325Z,100672.09
2023-03-18T03:59:37.085Z,100681.00
2023-03-18T04:02:04.998Z,100679.19
2023-03-18T04:04:32.939Z,100678.28
2023-03-18T04:07:03.158Z,100673.81
2023-03-18T04:09:30.854Z,100686.28
2023-03-18T04:11:58.515Z,100688.97
2023-03-18T04:14:26.288Z,100680.97
2023-03-18T04:16:56.021Z,100687.22
2023-03-18T04:19:23.764Z,100696.16
2023-03-18T04:21:51.462Z,100701.47
2023-03-18T04:24:21.069Z,100697.00
2023-03-18T04:26:48.926Z,100698.75
2023-03-18T04:29:17.129Z,100696.09
2023-03-18T04:31:44.839Z,100704.16
2023-03-18T04:34:12.562Z,100697.94
2023-03-18T04:36:40.248Z,100705.06
2023-03-18T04:39:09.596Z,100709.63
2023-03-18T04:41:38.718Z,100703.34
2023-03-18T04:44:07.033Z,100712.31
2023-03-18T04:46:34.759Z,100720.41
2023-03-18T04:49:02.695Z,100720.41
2023-03-18T04:51:30.426Z,100724.78
2023-03-18T04:53:58.400Z,100714.97
2023-03-18T04:56:26.262Z,100725.69
2023-03-18T04:58:55.326Z,100726.56
2023-03-18T05:01:23.331Z,100715.91
2023-03-18T05:03:51.278Z,100729.31
2023-03-18T05:06:23.789Z,100730.16
2023-03-18T05:08:51.280Z,100739.94
2023-03-18T05:11:18.975Z,100733.72
2023-03-18T05:13:47.018Z,100728.38
2023-03-18T05:16:16.325Z,100729.28
2023-03-18T05:18:44.692Z,100731.09
2023-03-18T05:21:12.717Z,100718.63
2023-03-18T05:23:41.050Z,100726.66
2023-03-18T05:26:09.880Z,100730.22
2023-03-18T05:28:37.617Z,100735.56
2023-03-18T05:31:05.598Z,100738.19
2023-03-18T05:33:34.638Z,100737.31
2023-03-18T05:36:02.686Z,100734.69
2023-03-18T05:38:30.394Z,100736.47
2023-03-18T05:40:58.071Z,100736.47
2023-03-18T05:43:26.235Z,100733.81
2023-03-18T05:45:54.203Z,100745.44
2023-03-18T05:48:22.260Z,100745.50
2023-03-18T05:50:51.874Z,100746.38
2023-03-18T05:53:19.619Z,100748.09
2023-03-18T05:55:47.347Z,100743.63
2023-03-18T05:58:15.085Z,100756.09
2023-03-18T06:00:43.388Z,100759.66
2023-03-18T06:03:11.127Z,100764.19
2023-03-18T06:05:38.878Z,100758.84
2023-03-18T06:08:07.953Z,100754.34
2023-03-18T06:10:35.778Z,100751.66
2023-03-18T06:13:03.543Z,100754.34
2023-03-18T06:15:32.282Z,100759.72
2023-03-18T06:18:00.231Z,100764.31
2023-03-18T06:20:27.933Z,100765.25
2023-03-18T06:22:55.647Z,100763.38
2023-03-18T06:25:25.382Z,100774.03
2023-03-18T06:27:53.062Z,100779.34
2023-03-18T06:30:21.474Z,100786.41
2023-03-18T06:32:49.246Z,100790.78
2023-03-18T06:35:17.284Z,100797.88
2023-03-18T06:37:45.117Z,100786.25
2023-03-18T06:40:13.336Z,100792.47
2023-03-18T06:42:42.701Z,100796.91
2023-03-18T06:45:11.279Z,100797.75
2023-03-18T06:47:39.394Z,100803.00
2023-03-18T06:50:07.663Z,100796.69
2023-03-18T06:52:35.377Z,100805.50
2023-03-18T06:55:03.067Z,100792.06
2023-03-18T06:57:30.729Z,100791.06
2023-03-18T06:59:59.916Z,100793.59
2023-03-18T07:02:28.442Z,100798.03
2023-03-18T07:04:56.261Z,100802.50
2023-03-18T07:07:24.680Z,100796.25
2023-03-18T07:09:52.585Z,100799.00
2023-03-18T07:12:20.393Z,100801.72
2023-03-18T07:14:48.597Z,100807.16
2023-03-18T07:17:17.684Z,100802.69
2023-03-18T07:19:45.713Z,100816.13
2023-03-18T07:22:13.506Z,100816.09
2023-03-18T07:24:41.415Z,100817.88
2023-03-18T07:27:09.173Z,100820.47
2023-03-18T07:29:37.208Z,100827.56
2023-03-18T07:32:05.161Z,100825.84
2023-03-18T07:34:34.352Z,100822.19
2023-03-18T07:37:02.405Z,100818.53
2023-03-18T07:39:30.284Z,100824.69
2023-03-18T07:41:58.099Z,100830.00
2023-03-18T07:44:26.139Z,100825.56
2023-03-18T07:46:54.122Z,100837.22
2023-03-18T07:49:21.954Z,100834.69
2023-03-18T07:51:51.277Z,100840.06
2023-03-18T07:54:20.071Z,100832.88
2023-03-18T07:56:48.805Z,100838.19
2023-03-18T07:59:18.682Z,100830.03
2023-03-18T08:01:46.607Z,100841.72
2023-03-18T08:04:14.328Z,100842.63
2023-03-18T08:06:42.162Z,100844.44
2023-03-18T08:09:11.298Z,100844.50
2023-03-18T08:11:39.023Z,100843.66
2023-03-18T08:14:07.294Z,100844.50
2023-03-18T08:16:35.121Z,100855.28
2023-03-18T08:19:02.893Z,100851.66
2023-03-18T08:21:30.789Z,100860.50
2023-03-18T08:23:58.505Z,100858.63
2023-03-18T08:26:27.841Z,100871.97
2023-03-18T08:28:55.821Z,100873.78
2023-03-18T08:31:23.605Z,100870.25
2023-03-18T08:33:54.122Z,100880.09
2023-03-18T08:36:21.909Z,100878.97
2023-03-18T08:38:49.670Z,100876.00
2023-03-18T08:41:18.005Z,100882.97
2023-03-18T08:43:47.147Z,100889.91
2023-03-18T08:46:15.737Z,100894.28
2023-03-18T08:48:43.447Z,100887.03
2023-03-18T08:51:11.407Z,100890.47
2023-03-18T08:53:39.343Z,100885.06
2023-03-18T08:56:07.732Z,100890.47
2023-03-18T08:58:36.125Z,100891.28
2023-03-18T09:01:06.070Z,100890.38
2023-03-18T09:03:34.570Z,100886.78
2023-03-18T09:06:03.306Z,100889.47
2023-03-18T09:08:31.204Z,100893.03
2023-03-18T09:10:59.677Z,100893.84
2023-03-18T09:13:27.801Z,100900.22
2023-03-18T09:15:55.601Z,100900.16
2023-03-18T09:18:25.063Z,100896.44
2023-03-18T09:20:53.644Z,100903.44
2023-03-18T09:23:22.540Z,100900.59
2023-03-18T09:25:51.508Z,100904.03
2023-03-18T09:28:19.285Z,100904.69
2023-03-18T09:30:47.098Z,100910.88
2023-03-18T09:33:16.076Z,100907.31
2023-03-18T09:35:45.758Z,100912.50
2023-03-18T09:38:15.715Z,100909.56
2023-03-18T09:40:52.840Z,100909.28
2023-03-18T09:43:35.041Z,100909.16
2023-03-18T09:46:11.621Z,100905.66
2023-03-18T09:49:00.112Z,100911.16
2023-03-18T09:51:37.421Z,100911.06
2023-03-18T09:54:11.588Z,100910.91
2023-03-18T09:56:40.158Z,100910.78
2023-03-18T09:59:16.704Z,100909.75
2023-03-18T10:01:47.412Z,100906.88
2023-03-18T10:04:21.858Z,100913.13
2023-03-18T10:06:55.483Z,100906.81
2023-03-18T10:09:28.519Z,100905.75
2023-03-18T10:12:02.538Z,100902.03
2023-03-18T10:14:41.279Z,100899.91
2023-03-18T10:17:17.942Z,100900.53
2023-03-18T10:19:50.004Z,100901.38
2023-03-18T10:22:33.363Z,100904.03
2023-03-18T10:25:10.166Z,100901.25
2023-03-18T10:27:47.164Z,100896.72
2023-03-18T10:30:32.580Z,100891.19
2023-03-18T10:33:08.036Z,100895.44
2023-03-18T10:35:41.641Z,100890.16
2023-03-18T10:38:19.778Z,100890.31
2023-03-18T10:40:48.020Z,100892.19
2023-03-18T10:43:17.925Z,100893.97
2023-03-18T10:45:47.742Z,100899.28
2023-03-18T10:48:22.204Z,100901.91
2023-03-18T10:51:07.511Z,100901.81
2023-03-18T10:53:43.373Z,100898.22
2023-03-18T10:56:13.189Z,100902.59
2023-03-18T10:58:42.225Z,100888.06
2023-03-18T11:01:13.048Z,100896.63
2023-03-18T11:03:45.714Z,100881.00
2023-03-18T11:06:20.323Z,100877.28
2023-03-18T11:08:50.514Z,100886.13
2023-03-18T11:11:24.402Z,100875.28
2023-03-18T11:13:54.016Z,100871.31
2023-03-18T11:16:25.935Z,100873.78
2023-03-18T11:18:54.739Z,100878.03
2023-03-18T11:21:23.757Z,100873.44
2023-03-18T11:24:21.036Z,100876.19
2023-03-18T11:26:54.005Z,100872.75
2023-03-18T11:29:25.235Z,100871.69
2023-03-18T11:31:57.999Z,100867.66
2023-03-18T11:34:29.142Z,100869.16
2023-03-18T11:37:01.167Z,100874.13
2023-03-18T11:39:32.604Z,100870.13
2023-03-18T11:42:02.702Z,100878.00
2023-03-18T11:44:32.653Z,100863.94
2023-03-18T11:47:06.287Z,100868.75
2023-03-18T11:49:34.431Z,100868.88
2023-03-18T11:52:22.752Z,100875.88
2023-03-18T11:55:10.744Z,100879.94
2023-03-18T11:57:58.311Z,100874.00
2023-03-18T12:00:33.357Z,100877.16
2023-03-18T12:03:42.226Z,100863.34
2023-03-18T12:06:20.386Z,100859.47
2023-03-18T12:09:00.956Z,100860.50
2023-03-18T12:11:48.641Z,100864.44
2023-03-18T12:14:25.795Z,100855.88
2023-03-18T12:17:03.909Z,100850.00
2023-03-18T12:19:54.226Z,100852.03
2023-03-18T12:22:32.993Z,100866.13
2023-03-18T12:25:33.170Z,100856.72
2023-03-18T12:28:11.773Z,100864.53
2023-03-18T12:30:54.820Z,100860.44
2023-03-18T12:33:45.546Z,100862.28
2023-03-18T12:36:23.836Z,100851.25
2023-03-18T12:39:26.319Z,100850.81
2023-03-18T12:42:02.690Z,100850.38
2023-03-18T12:44:47.347Z,100845.63
2023-03-18T12:47:21.120Z,100852.47
2023-03-18T12:49:53.296Z,100848.66
2023-03-18T12:52:30.129Z,100848.13
2023-03-18T12:55:05.724Z,100841.97
2023-03-18T12:57:42.013Z,100836.97
2023-03-18T13:00:20.033Z,100834.41
2023-03-18T13:02:54.164Z,100833.19
2023-03-18T13:05:34.731Z,100839.19
2023-03-18T13:08:21.918Z,100828.09
2023-03-18T13:10:59.671Z,100836.53
2023-03-18T13:13:29.495Z,100831.44
2023-03-18T13:15:59.592Z,100831.56
2023-03-18T13:18:34.519Z,100833.56
2023-03-18T13:21:02.677Z,100827.50
2023-03-18T13:23:52.423Z,100841.03
2023-03-18T13:26:32.600Z,100838.19
2023-03-18T13:29:14.004Z,100839.88
2023-03-18T13:31:53.019Z,100838.00
2023-03-18T13:34:40.063Z,100835.28
2023-03-18T13:37:22.721Z,100836.34
2023-03-18T13:40:17.934Z,100829.03
2023-03-18T13:42:49.056Z,100828.78
2023-03-18T13:45:27.949Z,100831.78
2023-03-18T13:48:02.165Z,100825.78
2023-03-18T13:50:37.348Z,100817.09
2023-03-18T13:53:06.618Z,100819.91
2023-03-18T13:55:42.889Z,100813.81
2023-03-18T13:58:34.922Z,100823.88
2023-03-18T14:01:29.736Z,100824.06
2023-03-18T14:04:01.958Z,100826.22
2023-03-18T14:06:55.321Z,100833.78
2023-03-18T14:09:32.373Z,100834.34
2023-03-18T14:12:18.843Z,100851.25
2023-03-18T14:15:08.024Z,100858.03
2023-03-18T14:17:48.648Z,100856.41
2023-03-18T14:20:41.898Z,100850.94
2023-03-18T14:23:31.366Z,100839.53
2023-03-18T14:26:04.479Z,100850.59
2023-03-18T14:28:45.372Z,100836.19
2023-03-18T14:31:33.141Z,100837.34
2023-03-18T14:34:05.667Z,100841.31
2023-03-18T14:37:06.698Z,100840.72
2023-03-18T14:39:39.479Z,100846.31
2023-03-18T14:42:16.728Z,100838.50
2023-03-18T14:44:49.017Z,100839.78
2023-03-18T14:47:35.622Z,100840.03
2023-03-18T14:50:06.850Z,100838.53
2023-03-18T14:52:38.453Z,100838.16
2023-03-18T14:55:10.422Z,100828.03
2023-03-18T14:57:38.119Z,100827.94
2023-03-18T15:00:08.589Z,100826.88
2023-03-18T15:02:40.453Z,100827.66
2023-03-18T15:05:08.792Z,100825.75
2023-03-18T15:07:40.373Z,100821.31
2023-03-18T15:10:11.545Z,100823.34
2023-03-18T15:12:39.850Z,100813.78
2023-03-18T15:15:13.805Z,100813.22
2023-03-18T15:17:42.454Z,100819.63
2023-03-18T15:20:13.945Z,100818.75
2023-03-18T15:22:44.600Z,100816.91
2023-03-18T15:25:20.515Z,100821.34
2023-03-18T15:27:49.684Z,100814.88
2023-03-18T15:30:29.113Z,100811.81
2023-03-18T15:33:04.661Z,100816.22
2023-03-18T15:35:33.164Z,100816.91
2023-03-18T15:38:19.306Z,100813.19
2023-03-18T15:40:50.670Z,100809.78
2023-03-18T15:43:26.916Z,100804.69
2023-03-18T15:45:57.056Z,100806.66
2023-03-18T15:48:30.763Z,100809.66
2023-03-18T15:51:00.736Z,100802.59
2023-03-18T15:53:34.778Z,100802.53
2023-03-18T15:56:14.152Z,100805.38
2023-03-18T15:58:44.810Z,100802.66
2023-03-18T16:01:17.977Z,100805.38
2023-03-18T16:03:47.432Z,100805.47
2023-03-18T16:06:16.689Z,100806.53
2023-03-18T16:08:46.337Z,100806.66
2023-03-18T16:11:16.636Z,100802.41
2023-03-18T16:13:45.293Z,100801.72
2023-03-18T16:16:18.914Z,100806.47
2023-03-18T16:18:46.674Z,100807.63
2023-03-18T16:21:15.315Z,100813.28
2023-03-18T16:23:46.618Z,100815.41
2023-03-18T16:26:17.369Z,100812.94
2023-03-18T16:28:48.340Z,100818.53
2023-03-18T16:31:16.312Z,100816.88
2023-03-18T16:33:46.266Z,100818.81
2023-03-18T16:36:26.595Z,100815.38
2023-03-18T16:38:56.099Z,100815.53
2023-03-18T16:41:23.855Z,100820.97
2023-03-18T16:43:52.751Z,100822.81
2023-03-18T16:46:20.562Z,100822.06
2023-03-18T16:48:49.583Z,100821.25
2023-03-18T16:51:19.252Z,100813.38
2023-03-18T16:53:47.140Z,100820.72
2023-03-18T16:56:18.280Z,100821.72
2023-03-18T16:58:46.454Z,100821.84
2023-03-18T17:01:16.658Z,100821.03
2023-03-18T17:03:45.738Z,100822.84
2023-03-18T17:06:14.915Z,100827.28
2023-03-18T17:08:42.773Z,100821.88
2023-03-18T17:11:18.072Z,100824.53
2023-03-18T17:13:48.716Z,100827.28
2023-03-18T17:16:20.571Z,100825.59
2023-03-18T17:18:48.357Z,100834.63
2023-03-18T17:21:17.080Z,100837.47
2023-03-18T17:23:45.636Z,100842.00
2023-03-18T17:26:15.998Z,100839.41
2023-03-18T17:28:46.026Z,100833.34
2023-03-18T17:31:15.552Z,100837.13
2023-03-18T17:33:43.551Z,100839.09
2023-03-18T17:36:11.276Z,100834.75
2023-03-18T17:38:41.967Z,100831.25
2023-03-18T17:41:22.201Z,100835.97
2023-03-18T17:43:51.052Z,100831.72
2023-03-18T17:46:24.558Z,100839.03
2023-03-18T17:48:58.721Z,100836.50
2023-03-18T17:51:27.326Z,100838.44
2023-03-18T17:53:59.092Z,100834.06
2023-03-18T17:56:27.949Z,100833.38
2023-03-18T17:58:56.091Z,100838.03
2023-03-18T18:01:27.421Z,100844.41
2023-03-18T18:03:57.072Z,100845.47
2023-03-18T18:06:28.771Z,100844.75
2023-03-18T18:09:00.600Z,100840.38
2023-03-18T18:11:33.132Z,100840.53
2023-03-18T18:14:13.812Z,100840.72
2023-03-18T18:16:43.635Z,100848.09
2023-03-18T18:19:11.933Z,100849.06
2023-03-18T18:21:39.793Z,100848.25
2023-03-18T18:24:23.694Z,100846.56
2023-03-18T18:27:00.012Z,100850.28
2023-03-18T18:29:42.354Z,100848.66
2023-03-18T18:32:39.085Z,100854.13
2023-03-18T18:38:21.002Z,100852.59
2023-03-18T18:41:07.768Z,100854.47
2023-03-18T18:52:25.914Z,100868.31
2023-03-18T18:55:11.592Z,100871.13
2023-03-18T18:57:56.469Z,100870.38
2023-03-18T19:36:12.354Z,100888.72
2023-03-18T20:04:59.239Z,100898.97
2023-03-18T20:29:41.724Z,100914.59
2023-03-18T20:55:51.729Z,100926.78
2023-03-18T20:58:21.950Z,100936.66
2023-03-18T21:00:50.787Z,100938.47
2023-03-18T21:03:24.414Z,100931.28
2023-03-18T21:05:53.314Z,100946.47
2023-03-18T21:08:21.225Z,100945.59
2023-03-18T21:10:48.998Z,100950.88
2023-03-18T21:13:39.946Z,100941.00
2023-03-18T21:16:12.997Z,100947.16
2023-03-18T21:18:43.575Z,100941.72
2023-03-18T21:21:22.309Z,100939.84
2023-03-18T21:23:52.876Z,100942.53
2023-03-18T21:26:21.751Z,100939.84
2023-03-18T21:28:52.807Z,100941.66
2023-03-18T21:31:25.993Z,100942.63
2023-03-18T21:34:01.796Z,100948.03
2023-03-18T21:36:29.647Z,100954.34
2023-03-18T21:38:57.884Z,100947.16
2023-03-18T21:41:29.969Z,100951.47
2023-03-18T21:44:01.393Z,100950.50
2023-03-18T21:46:30.611Z,100953.09
2023-03-18T21:49:00.043Z,100959.25
2023-03-18T21:51:39.196Z,100956.56
2023-03-18T21:54:09.388Z,100962.78
2023-03-18T21:56:37.329Z,100969.03
2023-03-18T21:59:05.207Z,100957.38
2023-03-18T22:01:33.791Z,100958.25
2023-03-18T22:04:03.326Z,100954.72
2023-03-18T22:06:31.357Z,100949.38
2023-03-18T22:08:59.741Z,100954.78
2023-03-18T22:11:29.131Z,100951.25
2023-03-18T22:13:58.022Z,100946.78
2023-03-18T22:16:26.646Z,100935.16
2023-03-18T22:18:56.833Z,100931.56
2023-03-18T22:21:33.029Z,100924.41
2023-03-18T22:24:00.992Z,100928.84
2023-03-18T22:26:35.086Z,100927.06
2023-03-18T22:29:04.469Z,100919.00
2023-03-18T22:31:32.359Z,100912.69
2023-03-18T22:34:04.168Z,100920.66
2023-03-18T22:36:36.233Z,100918.84
2023-03-18T22:39:09.201Z,100914.41
2023-03-18T22:41:47.024Z,100914.38
2023-03-18T22:44:23.947Z,100909.84
2023-03-18T22:46:56.254Z,100908.94
2023-03-18T22:49:25.343Z,100918.81
2023-03-18T22:51:58.100Z,100921.50
2023-03-18T22:54:27.213Z,100918.78
2023-03-18T22:56:55.483Z,100923.38
2023-03-18T22:59:24.089Z,100919.81
2023-03-18T23:01:51.984Z,100921.56
2023-03-18T23:04:19.921Z,100918.03
2023-03-18T23:06:47.605Z,100925.19
2023-03-18T23:09:18.917Z,100927.91
2023-03-18T23:11:46.604Z,100934.25
2023-03-18T23:14:14.334Z,100929.78
2023-03-18T23:16:42.098Z,100929.75
2023-03-18T23:19:09.820Z,100937.88
2023-03-18T23:21:37.739Z,100949.47
2023-03-18T23:24:05.931Z,100938.75
2023-03-18T23:26:35.080Z,100931.56
2023-03-18T23:29:02.755Z,100934.28
2023-03-18T23:31:30.512Z,100934.31
2023-03-18T23:33:58.399Z,100937.91
2023-03-18T23:36:26.300Z,100934.34
2023-03-18T23:38:54.297Z,100930.75
2023-03-18T23:41:21.964Z,100928.03
2023-03-18T23:43:51.027Z,100935.16
2023-03-18T23:46:20.073Z,100941.38
2023-03-18T23:48:47.995Z,100958.38
2023-03-18T23:51:15.818Z,100963.78
2023-03-18T23:53:43.596Z,100965.50
2023-03-18T23:56:11.767Z,100957.50
2023-03-18T23:58:39.457Z,100956.69
